KMSL

Northwest Alabama Regional Airport

Muscle Shoals, Alabama, USA
METAR KMSL 201513Z AUTO 18011KT 10SM OVC014 19/15 A3028 RMK AO2 T01890150
Observed Flight Rules
Feb-20 @ 15:13 UTC (2 hours ago) Marginal Visual Flight Rules
Wind Visibility Clouds
180° at 11 knots 10 miles
  • Overcast at 1,400' AGL
Temperatures Readings
Current 19°C / 66°F
Dewpoint 15°C / 59°F
Humidity 78%
Altimeter 30.28" Hg
Pressure 1025 hPa
Elevation 164
METAR KMSL 201513Z AUTO 18011KT 10SM OVC014 19/15 A3028 RMK AO2 T01890150
Observed Flight Rules
Feb-20 @ 15:13 UTC
(2 hours ago)
MVFR
Wind Visibility
180° at 11 knots 10 miles
Clouds
  • Overcast at 1,400' AGL
Temperature Dewpoint
19°C / 66°F 15°C / 59°F
Humidity Altimeter Pressure
78% 30.28" Hg 1025 hPa